createdAt,value
2023-05-10T00:00:55.876Z,97.4685
2023-05-10T00:01:56.873Z,97.2853
2023-05-10T00:02:58.366Z,97.1225
2023-05-10T00:05:59.952Z,97.2012
2023-05-10T00:12:05.393Z,97.7783
2023-05-10T00:13:06.604Z,97.4722
2023-05-10T00:14:07.046Z,97.5405
2023-05-10T00:15:08.390Z,97.3392
2023-05-10T00:16:08.793Z,96.8795
2023-05-10T00:17:08.826Z,97.1223
2023-05-10T00:18:09.512Z,97.1753
2023-05-10T00:19:09.701Z,97.3880
2023-05-10T00:20:10.126Z,97.0399
2023-05-10T00:21:10.334Z,96.8673
2023-05-10T00:22:11.549Z,96.6623
2023-05-10T00:23:12.935Z,96.5919
2023-05-10T00:24:13.385Z,96.7279
2023-05-10T00:25:13.331Z,96.8128
2023-05-10T00:26:13.292Z,96.9796
2023-05-10T00:27:14.299Z,96.7689
2023-05-10T00:28:15.738Z,96.5707
2023-05-10T00:30:16.547Z,96.3446
2023-05-10T00:31:16.726Z,96.6981
2023-05-10T00:32:17.604Z,96.8406
2023-05-10T00:33:17.881Z,96.5355
2023-05-10T00:34:19.132Z,96.4374
2023-05-10T00:35:20.241Z,96.1339
2023-05-10T00:36:20.841Z,95.4824
2023-05-10T00:37:21.119Z,95.6797
2023-05-10T00:38:21.934Z,95.8844
2023-05-10T00:39:21.989Z,96.0814
2023-05-10T00:40:23.338Z,96.2862
2023-05-10T00:41:23.812Z,96.5163
2023-05-10T00:42:24.452Z,96.6529
2023-05-10T00:43:24.805Z,97.1669
2023-05-10T00:44:25.697Z,97.2161
2023-05-10T00:45:26.177Z,97.0618
2023-05-10T00:46:26.483Z,96.9096
2023-05-10T00:51:30.059Z,96.7223
2023-05-10T00:52:31.148Z,96.4973
2023-05-10T00:53:32.574Z,96.4668
2023-05-10T00:54:32.446Z,96.3711
2023-05-10T00:55:33.659Z,96.3358
2023-05-10T00:56:34.886Z,96.1499
2023-05-10T00:57:34.909Z,96.2613
2023-05-10T00:58:36.146Z,96.4202
2023-05-10T00:59:37.417Z,96.2294
2023-05-10T01:00:37.390Z,96.1720
2023-05-10T01:01:38.881Z,96.1149
2023-05-10T01:02:39.100Z,96.1997
2023-05-10T01:03:40.020Z,96.2020
2023-05-10T01:04:40.140Z,96.1046
2023-05-10T01:05:40.305Z,96.0045
2023-05-10T01:06:41.626Z,96.0752
2023-05-10T01:07:41.950Z,96.0264
2023-05-10T01:08:43.307Z,95.7766
2023-05-10T01:09:44.788Z,95.7949
2023-05-10T01:10:46.087Z,95.8942
2023-05-10T01:11:48.172Z,95.8421
2023-05-10T01:12:48.861Z,95.8672
2023-05-10T01:13:49.288Z,95.9551
2023-05-10T01:14:49.547Z,96.0428
2023-05-10T01:15:51.248Z,96.0298
2023-05-10T01:16:51.527Z,96.0389
2023-05-10T01:17:51.795Z,96.0591
2023-05-10T01:18:51.842Z,95.8476
2023-05-10T01:19:52.069Z,95.7613
2023-05-10T01:20:52.572Z,95.7345
2023-05-10T01:21:53.720Z,95.9163
2023-05-10T01:22:55.214Z,96.2277
2023-05-10T01:23:56.205Z,95.9118
2023-05-10T01:24:57.578Z,95.7098
2023-05-10T01:25:57.631Z,95.6185
2023-05-10T01:26:59.025Z,95.6984
2023-05-10T01:28:00.333Z,95.5265
2023-05-10T01:29:02.024Z,95.6196
2023-05-10T01:30:14.840Z,96.0385
2023-05-10T01:31:03.190Z,95.4883
2023-05-10T01:32:03.498Z,95.4748
2023-05-10T01:33:04.942Z,95.5955
2023-05-10T01:34:05.198Z,95.8135
2023-05-10T01:35:05.299Z,95.7649
2023-05-10T01:36:06.530Z,95.8757
2023-05-10T01:37:07.310Z,95.6950
2023-05-10T01:38:07.726Z,95.6769
2023-05-10T01:39:07.974Z,95.9280
2023-05-10T01:40:08.049Z,95.9463
2023-05-10T01:41:08.785Z,95.8405
2023-05-10T01:42:09.376Z,95.5906
2023-05-10T01:43:09.752Z,95.4675
2023-05-10T01:44:10.164Z,95.5222
2023-05-10T01:45:10.801Z,95.5151
2023-05-10T01:46:11.022Z,95.5595
2023-05-10T01:47:11.803Z,95.3693
2023-05-10T01:48:12.379Z,95.1826
2023-05-10T01:49:13.112Z,95.2607
2023-05-10T01:50:13.433Z,95.3835
2023-05-10T01:51:14.157Z,95.6724
2023-05-10T01:52:15.657Z,95.6169
2023-05-10T01:53:16.245Z,95.6097
2023-05-10T01:54:16.449Z,95.7681
2023-05-10T01:55:16.828Z,95.7029
2023-05-10T01:56:17.202Z,95.7740
2023-05-10T01:57:17.491Z,96.0618
2023-05-10T01:58:17.460Z,96.2696
2023-05-10T01:59:17.671Z,96.2700
2023-05-10T02:00:18.084Z,96.2211
2023-05-10T02:01:19.166Z,96.0965
2023-05-10T02:02:19.452Z,96.1091
2023-05-10T02:03:20.461Z,96.1565
2023-05-10T02:04:21.857Z,96.2197
2023-05-10T02:05:22.385Z,96.2311
2023-05-10T02:06:22.677Z,96.0595
2023-05-10T02:07:22.857Z,95.8772
2023-05-10T02:08:23.391Z,96.0428
2023-05-10T02:09:23.846Z,96.3065
2023-05-10T02:10:24.748Z,96.5858
2023-05-10T02:11:25.153Z,96.7598
2023-05-10T02:12:25.877Z,96.8689
2023-05-10T02:13:26.377Z,96.9064
2023-05-10T02:14:28.031Z,97.0500
2023-05-10T02:15:28.716Z,97.1753
2023-05-10T02:16:30.528Z,97.1680
2023-05-10T02:18:30.298Z,97.2496
2023-05-10T02:19:31.108Z,97.4022
2023-05-10T02:20:32.092Z,97.3003
2023-05-10T02:21:32.560Z,97.2274
2023-05-10T02:22:33.809Z,97.2738
2023-05-10T02:23:35.156Z,97.2890
2023-05-10T02:24:36.129Z,97.4086
2023-05-10T02:25:38.533Z,97.5118
2023-05-10T02:26:38.391Z,97.4123
2023-05-10T02:27:38.933Z,97.4758
2023-05-10T02:28:39.102Z,97.4776
2023-05-10T02:29:40.387Z,97.4738
2023-05-10T02:30:41.251Z,97.4243
2023-05-10T02:31:42.919Z,97.4186
2023-05-10T02:32:44.332Z,97.3806
2023-05-10T02:33:44.051Z,97.4291
2023-05-10T02:34:45.099Z,97.4940
2023-05-10T02:35:45.632Z,97.4797
2023-05-10T02:36:45.844Z,97.4100
2023-05-10T02:37:47.138Z,97.3586
2023-05-10T02:38:47.804Z,97.2709
2023-05-10T02:39:48.556Z,97.2226
2023-05-10T02:40:49.643Z,97.2154
2023-05-10T02:41:50.668Z,97.4122
2023-05-10T02:42:51.393Z,97.3824
2023-05-10T02:43:52.842Z,97.2395
2023-05-10T02:44:52.529Z,97.1325
2023-05-10T02:45:53.269Z,97.2044
2023-05-10T02:46:54.791Z,97.4363
2023-05-10T02:47:55.296Z,97.4604
2023-05-10T02:48:55.260Z,97.3241
2023-05-10T02:49:56.106Z,97.1980
2023-05-10T02:50:55.802Z,97.0560
2023-05-10T02:51:57.333Z,97.0551
2023-05-10T02:52:58.123Z,97.0714
2023-05-10T02:53:58.351Z,97.1024
2023-05-10T02:54:58.948Z,97.1663
2023-05-10T02:56:01.158Z,97.1663
2023-05-10T02:57:02.402Z,97.0848
2023-05-10T02:58:02.034Z,97.0826
2023-05-10T02:59:02.279Z,97.1299
2023-05-10T03:00:02.874Z,97.2794
2023-05-10T03:01:04.801Z,97.5213
2023-05-10T03:02:05.732Z,97.5064
2023-05-10T03:03:05.759Z,97.4338
2023-05-10T03:04:06.632Z,97.4428
2023-05-10T03:05:06.877Z,97.6413
2023-05-10T03:06:07.722Z,97.7524
2023-05-10T03:07:08.229Z,97.6323
2023-05-10T03:08:08.697Z,97.5275
2023-05-10T03:09:11.273Z,97.4143
2023-05-10T03:10:10.181Z,97.3516
2023-05-10T03:11:10.338Z,97.3747
2023-05-10T03:12:12.077Z,97.3665
2023-05-10T03:13:12.847Z,97.3771
2023-05-10T03:14:14.508Z,97.4963
2023-05-10T03:16:44.925Z,97.6590
2023-05-10T03:17:43.684Z,97.6158
2023-05-10T03:18:43.837Z,97.4033
2023-05-10T03:19:44.668Z,97.2549
2023-05-10T03:20:45.096Z,97.2423
2023-05-10T03:21:45.489Z,97.2948
2023-05-10T03:22:46.056Z,97.3028
2023-05-10T03:23:46.940Z,97.2078
2023-05-10T03:24:47.830Z,97.2503
2023-05-10T03:25:48.448Z,97.4428
2023-05-10T03:26:48.533Z,97.4172
2023-05-10T03:27:49.665Z,97.3580
2023-05-10T03:28:50.631Z,97.3174
2023-05-10T03:29:51.033Z,97.2967
2023-05-10T03:30:51.668Z,97.3153
2023-05-10T03:31:52.248Z,97.3781
2023-05-10T03:32:52.645Z,97.3914
2023-05-10T03:33:53.239Z,97.4041
2023-05-10T03:34:55.671Z,97.4531
2023-05-10T03:37:57.499Z,97.7749
2023-05-10T03:38:58.375Z,97.6972
2023-05-10T03:39:57.353Z,97.6528
2023-05-10T03:40:58.849Z,97.6521
2023-05-10T03:41:58.549Z,97.7464
2023-05-10T03:42:59.037Z,97.8249
2023-05-10T03:44:00.057Z,97.8663
2023-05-10T03:44:59.880Z,97.9350
2023-05-10T03:46:00.397Z,98.0075
2023-05-10T03:47:02.272Z,98.0668
2023-05-10T03:48:01.997Z,98.0370
2023-05-10T03:49:03.292Z,98.0541
2023-05-10T03:50:02.685Z,98.0784
2023-05-10T03:51:03.871Z,98.0152
2023-05-10T03:52:05.489Z,98.0305
2023-05-10T03:54:06.133Z,98.1229
2023-05-10T03:55:05.980Z,98.1435
2023-05-10T03:56:06.732Z,98.1691
2023-05-10T03:57:07.322Z,98.1731
2023-05-10T03:58:07.583Z,98.1535
2023-05-10T03:59:07.827Z,98.1638
2023-05-10T04:00:11.265Z,98.1816
2023-05-10T04:01:09.735Z,98.2357
2023-05-10T04:02:10.601Z,98.3032
2023-05-10T04:03:11.044Z,98.3039
2023-05-10T04:04:11.820Z,98.3240
2023-05-10T04:09:14.869Z,98.3027
2023-05-10T04:10:16.026Z,98.2829
2023-05-10T04:11:16.307Z,98.2600
2023-05-10T04:12:16.359Z,98.2144
2023-05-10T04:13:18.002Z,98.1572
2023-05-10T04:14:18.391Z,98.0565
2023-05-10T04:15:19.163Z,98.0938
2023-05-10T04:16:19.287Z,97.9515
2023-05-10T04:17:21.724Z,97.7426
2023-05-10T04:18:23.011Z,97.6296
2023-05-10T04:19:23.700Z,97.5599
2023-05-10T04:20:24.429Z,97.5285
2023-05-10T04:21:25.294Z,97.5847
2023-05-10T04:22:26.248Z,97.6567
2023-05-10T04:23:27.593Z,97.5697
2023-05-10T04:24:29.191Z,97.4885
2023-05-10T04:25:30.322Z,97.4267
2023-05-10T04:26:30.880Z,97.4167
2023-05-10T04:27:31.761Z,97.5599
2023-05-10T04:28:31.925Z,97.5211
2023-05-10T04:29:32.397Z,97.4696
2023-05-10T04:30:32.758Z,97.3757
2023-05-10T04:34:36.517Z,97.4246
2023-05-10T04:35:38.505Z,97.3951
2023-05-10T04:39:42.492Z,97.3664
2023-05-10T04:40:42.161Z,97.3344
2023-05-10T04:41:42.457Z,97.2998
2023-05-10T04:42:42.589Z,97.2895
2023-05-10T04:43:43.617Z,97.1580
2023-05-10T04:44:44.716Z,97.0735
2023-05-10T04:50:48.962Z,95.8488
2023-05-10T04:51:49.544Z,95.8407
2023-05-10T04:52:49.943Z,95.7550
2023-05-10T04:54:05.254Z,95.5496
2023-05-10T04:54:56.409Z,95.0871
2023-05-10T04:55:57.881Z,95.0590
2023-05-10T04:57:00.066Z,95.1200
2023-05-10T04:58:02.162Z,95.1572
2023-05-10T04:59:03.558Z,95.1407
2023-05-10T05:00:04.315Z,95.2249
2023-05-10T05:01:05.317Z,95.3955
2023-05-10T05:02:06.431Z,95.4366
2023-05-10T05:03:08.843Z,95.3465
2023-05-10T05:04:10.486Z,95.0512
2023-05-10T05:05:11.255Z,95.0662
2023-05-10T05:06:13.472Z,95.3949
2023-05-10T05:07:14.877Z,95.3577
2023-05-10T05:08:15.793Z,95.7188
2023-05-10T05:09:16.527Z,95.7340
2023-05-10T05:10:18.295Z,95.5435
2023-05-10T05:11:18.508Z,95.1744
2023-05-10T05:12:19.313Z,95.3122
2023-05-10T05:13:19.835Z,95.1685
2023-05-10T05:14:19.939Z,95.0001
2023-05-10T05:15:20.125Z,94.3253
2023-05-10T05:16:20.983Z,94.5580
2023-05-10T05:22:26.648Z,94.7090
2023-05-10T05:23:28.080Z,94.7517
2023-05-10T05:24:28.396Z,94.7631
2023-05-10T05:25:28.814Z,94.6802
2023-05-10T05:26:29.355Z,94.8097
2023-05-10T05:27:31.189Z,94.9339
2023-05-10T05:28:32.294Z,95.1205
2023-05-10T05:29:33.667Z,95.2287
2023-05-10T05:30:35.144Z,95.5119
2023-05-10T05:31:36.732Z,95.4836
2023-05-10T05:32:38.512Z,95.4489
2023-05-10T05:33:39.234Z,95.3109
2023-05-10T05:34:39.962Z,95.5879
2023-05-10T05:35:41.301Z,95.5417
2023-05-10T05:36:42.615Z,95.4929
2023-05-10T05:37:42.998Z,95.5767
2023-05-10T05:38:43.528Z,95.4212
2023-05-10T05:39:44.226Z,95.2484
2023-05-10T05:40:44.918Z,95.3951
2023-05-10T05:41:44.954Z,95.4383
2023-05-10T05:42:45.666Z,95.2279
2023-05-10T05:43:45.845Z,94.9494
2023-05-10T05:44:50.651Z,95.0203
2023-05-10T05:45:48.114Z,95.2757
2023-05-10T05:48:48.071Z,94.7650
2023-05-10T05:49:52.451Z,94.6023
2023-05-10T05:50:51.053Z,94.5018
2023-05-10T05:51:53.457Z,94.5751
2023-05-10T05:53:54.102Z,94.5960
2023-05-10T05:54:54.345Z,94.5177
2023-05-10T05:55:54.710Z,94.2945
2023-05-10T05:56:57.660Z,94.1220
2023-05-10T05:59:58.490Z,94.4220
2023-05-10T06:03:59.862Z,94.2060
2023-05-10T06:04:59.890Z,94.0826
2023-05-10T06:06:01.208Z,94.0498
2023-05-10T06:07:03.154Z,93.9084
2023-05-10T06:08:04.708Z,94.0097
2023-05-10T06:09:05.324Z,94.4066
2023-05-10T06:10:05.618Z,94.3067
2023-05-10T06:11:05.820Z,94.5921
2023-05-10T06:12:07.959Z,94.2013
2023-05-10T06:13:10.445Z,94.2907
2023-05-10T06:14:11.361Z,94.4220
2023-05-10T06:15:13.759Z,94.4552
2023-05-10T06:16:15.070Z,94.7222
2023-05-10T06:17:16.239Z,94.3801
2023-05-10T06:18:16.908Z,94.3126
2023-05-10T06:19:20.693Z,94.6339
2023-05-10T06:21:18.842Z,94.2311
2023-05-10T06:22:19.240Z,94.1505
2023-05-10T06:23:20.768Z,93.2641
2023-05-10T06:24:21.131Z,92.2128
2023-05-10T06:25:22.332Z,91.4975
2023-05-10T06:26:23.969Z,92.0786
2023-05-10T06:27:24.882Z,92.8008
2023-05-10T06:28:26.544Z,92.5167
2023-05-10T06:29:27.191Z,92.7925
2023-05-10T06:32:27.596Z,91.2032
2023-05-10T06:33:28.261Z,89.9091
2023-05-10T06:34:29.548Z,90.0084
2023-05-10T06:35:30.650Z,90.1886
2023-05-10T06:36:31.384Z,90.1667
2023-05-10T06:37:31.960Z,90.4696
2023-05-10T06:38:32.556Z,89.9572
2023-05-10T06:39:33.198Z,91.0177
2023-05-10T06:40:33.695Z,90.0287
2023-05-10T06:41:34.286Z,90.3514
2023-05-10T06:42:34.963Z,90.6164
2023-05-10T06:43:35.530Z,91.0412
2023-05-10T06:44:35.976Z,91.5729
2023-05-10T06:45:37.094Z,91.7340
2023-05-10T06:46:37.682Z,92.1460
2023-05-10T06:47:40.678Z,91.9366
2023-05-10T06:48:41.321Z,91.7848
2023-05-10T06:49:41.669Z,91.9436
2023-05-10T06:50:42.333Z,92.2525
2023-05-10T06:51:43.041Z,92.0760
2023-05-10T06:52:44.054Z,92.6622
2023-05-10T06:53:44.706Z,93.0554
2023-05-10T06:54:45.127Z,92.5204
2023-05-10T06:55:46.232Z,91.9558
2023-05-10T06:56:47.092Z,92.5258
2023-05-10T06:57:47.339Z,91.3962
2023-05-10T06:58:48.092Z,91.8127
2023-05-10T06:59:49.064Z,92.2200
2023-05-10T07:00:49.862Z,91.9412
2023-05-10T07:01:50.295Z,92.2508
2023-05-10T07:02:51.285Z,91.9753
2023-05-10T07:03:52.153Z,92.5174
2023-05-10T07:04:53.070Z,92.1614
2023-05-10T07:05:54.015Z,92.3456
2023-05-10T07:06:54.191Z,91.6624
2023-05-10T07:07:55.404Z,91.9723
2023-05-10T07:08:55.844Z,91.9894
2023-05-10T07:09:56.384Z,92.4309
2023-05-10T07:10:57.095Z,92.5142
2023-05-10T07:11:58.081Z,91.5457
2023-05-10T07:12:58.727Z,91.3609
2023-05-10T07:13:59.006Z,90.5570
2023-05-10T07:14:59.473Z,90.1499
2023-05-10T07:16:00.723Z,90.0755
2023-05-10T07:17:01.696Z,90.4041
2023-05-10T07:18:02.464Z,90.9703
2023-05-10T07:19:03.327Z,90.8144
2023-05-10T07:20:04.341Z,91.1280
2023-05-10T07:21:04.957Z,91.0950
2023-05-10T07:22:05.761Z,91.5390
2023-05-10T07:23:06.518Z,90.6956
2023-05-10T07:24:06.849Z,90.3367
2023-05-10T07:25:07.270Z,90.4053
2023-05-10T07:26:07.869Z,90.2759
2023-05-10T07:27:08.612Z,90.8428
2023-05-10T07:28:09.253Z,90.5308
2023-05-10T07:29:09.640Z,90.0440
2023-05-10T07:30:10.261Z,89.8634
2023-05-10T07:31:11.191Z,89.5435
2023-05-10T07:32:12.138Z,89.7345
2023-05-10T07:33:13.006Z,90.1687
2023-05-10T07:34:13.610Z,89.5852
2023-05-10T07:35:14.394Z,90.2812
2023-05-10T07:36:15.094Z,89.8904
2023-05-10T07:37:15.659Z,90.0057
2023-05-10T07:38:16.264Z,90.5111
2023-05-10T07:39:26.593Z,90.3716
2023-05-10T07:40:21.288Z,90.0563
2023-05-10T07:41:21.635Z,89.7167
2023-05-10T07:42:21.786Z,90.0707
2023-05-10T07:43:22.639Z,90.1565
2023-05-10T07:44:23.788Z,90.2245
2023-05-10T07:45:24.152Z,90.7708
2023-05-10T07:46:24.532Z,90.2286
2023-05-10T07:47:25.056Z,89.9321
2023-05-10T07:48:25.731Z,89.9321
2023-05-10T07:49:26.727Z,89.9321
2023-05-10T07:50:27.902Z,89.9321
2023-05-10T07:51:29.120Z,89.6628
2023-05-10T07:52:30.277Z,89.6071
2023-05-10T07:53:31.379Z,89.6071
2023-05-10T07:54:31.919Z,89.6071
2023-05-10T07:55:32.907Z,89.6071
2023-05-10T07:56:33.515Z,88.9379
2023-05-10T07:57:33.701Z,89.1983
2023-05-10T07:58:34.825Z,88.8185
2023-05-10T07:59:35.091Z,87.9635
2023-05-10T08:00:35.837Z,87.1433
2023-05-10T08:01:36.404Z,87.5998
2023-05-10T08:02:37.698Z,86.7436
2023-05-10T08:03:38.044Z,86.6792
2023-05-10T08:04:39.323Z,87.3205
2023-05-10T08:05:39.157Z,87.4647
2023-05-10T08:06:39.779Z,87.3202
2023-05-10T08:07:40.831Z,87.4057
2023-05-10T08:08:41.555Z,87.1688
2023-05-10T08:09:42.224Z,86.4194
2023-05-10T08:10:42.820Z,86.5409
2023-05-10T08:11:44.062Z,86.5018
2023-05-10T08:12:44.679Z,86.9294
2023-05-10T08:13:45.156Z,87.2592
2023-05-10T08:14:46.211Z,87.3305
2023-05-10T08:15:46.852Z,87.2317
2023-05-10T08:16:47.909Z,86.9968
2023-05-10T08:17:48.405Z,86.6887
2023-05-10T08:18:48.553Z,87.2877
2023-05-10T08:19:48.548Z,87.2877
2023-05-10T08:20:49.588Z,87.2877
2023-05-10T08:21:50.768Z,87.2877
2023-05-10T08:22:51.955Z,87.3878
2023-05-10T08:23:51.569Z,86.7168
2023-05-10T08:24:52.211Z,86.2243
2023-05-10T08:25:53.380Z,85.8794
2023-05-10T08:26:53.738Z,86.3138
2023-05-10T08:27:54.193Z,86.4433
2023-05-10T08:28:54.718Z,85.4300
2023-05-10T08:29:54.874Z,85.1869
2023-05-10T08:30:55.202Z,85.9060
2023-05-10T08:31:56.217Z,84.8578
2023-05-10T08:32:56.830Z,85.0745
2023-05-10T08:33:57.718Z,84.3756
2023-05-10T08:34:58.470Z,85.6744
2023-05-10T08:35:58.245Z,85.1432
2023-05-10T08:36:58.684Z,85.4200
2023-05-10T08:37:58.867Z,85.1272
2023-05-10T08:38:59.327Z,83.8094
2023-05-10T08:39:59.528Z,83.6108
2023-05-10T08:41:00.434Z,83.7848
2023-05-10T08:42:00.839Z,83.6683
2023-05-10T08:43:01.700Z,84.6459
2023-05-10T08:44:02.405Z,84.2879
2023-05-10T08:45:03.359Z,84.6401
2023-05-10T08:46:03.972Z,83.2979
2023-05-10T08:47:04.082Z,83.1234
2023-05-10T08:48:04.981Z,82.3293
2023-05-10T08:49:05.806Z,83.2623
2023-05-10T08:50:06.396Z,83.9149
2023-05-10T08:51:07.163Z,82.3531
2023-05-10T08:52:07.958Z,82.1722
2023-05-10T08:53:08.332Z,82.3704
2023-05-10T08:54:08.946Z,83.4773
2023-05-10T08:55:09.600Z,83.1377
2023-05-10T08:56:10.308Z,82.9500
2023-05-10T08:57:11.386Z,83.1948
2023-05-10T08:58:12.133Z,82.1343
2023-05-10T08:59:12.839Z,81.9741
2023-05-10T09:00:13.602Z,81.4203
2023-05-10T09:01:14.201Z,81.2748
2023-05-10T09:02:16.619Z,80.9731
2023-05-10T09:03:15.394Z,82.7079
2023-05-10T09:04:16.173Z,81.9377
2023-05-10T09:05:16.690Z,81.3888
2023-05-10T09:06:16.977Z,81.9161
2023-05-10T09:07:17.545Z,81.6053
2023-05-10T09:08:18.016Z,80.9365
2023-05-10T09:09:18.780Z,81.1983
2023-05-10T09:10:19.361Z,81.4801
2023-05-10T09:11:19.960Z,81.3008
2023-05-10T09:12:20.477Z,81.6311
2023-05-10T09:13:21.427Z,82.1344
2023-05-10T09:14:22.120Z,81.3639
2023-05-10T09:15:22.780Z,81.1853
2023-05-10T09:16:22.877Z,81.6377
2023-05-10T09:17:23.826Z,82.2230
2023-05-10T09:18:27.300Z,81.8891
2023-05-10T09:19:24.861Z,81.5149
2023-05-10T09:20:24.867Z,81.9984
2023-05-10T09:21:25.291Z,81.5762
2023-05-10T09:22:26.011Z,80.8686
2023-05-10T09:23:26.484Z,80.8506
2023-05-10T09:24:27.377Z,81.4420
2023-05-10T09:25:28.051Z,82.7765
2023-05-10T09:26:28.829Z,83.2368
2023-05-10T09:27:29.318Z,82.7992
2023-05-10T09:28:30.057Z,83.0639
2023-05-10T09:29:30.315Z,82.6156
2023-05-10T09:30:31.183Z,83.1833
2023-05-10T09:31:32.461Z,82.5735
2023-05-10T09:32:33.063Z,83.6214
2023-05-10T09:33:33.847Z,83.2209
2023-05-10T09:34:34.522Z,82.6333
2023-05-10T09:35:34.841Z,82.0536
2023-05-10T09:36:35.358Z,81.3159
2023-05-10T09:37:36.236Z,81.2802
2023-05-10T09:38:36.747Z,80.1097
2023-05-10T09:39:37.186Z,79.7090
2023-05-10T09:40:37.803Z,80.1589
2023-05-10T09:41:38.388Z,81.1892
2023-05-10T09:42:39.007Z,82.1655
2023-05-10T09:43:39.390Z,82.6339
2023-05-10T09:44:40.074Z,83.0913
2023-05-10T09:45:41.066Z,82.3714
2023-05-10T09:46:42.085Z,80.9141
2023-05-10T09:47:42.539Z,81.7741
2023-05-10T09:48:43.322Z,81.7913
2023-05-10T09:49:43.828Z,79.9254
2023-05-10T09:50:44.522Z,80.5230
2023-05-10T09:51:45.255Z,80.3867
2023-05-10T09:52:45.935Z,81.2215
2023-05-10T09:53:46.222Z,82.1078
2023-05-10T09:54:46.807Z,82.0007
2023-05-10T09:55:47.423Z,81.9913
2023-05-10T09:56:47.536Z,82.4997
2023-05-10T09:57:48.631Z,82.0192
2023-05-10T09:58:49.112Z,80.7087
2023-05-10T09:59:49.597Z,80.1577
2023-05-10T10:00:50.463Z,80.4886
2023-05-10T10:01:51.734Z,80.3399
2023-05-10T10:02:52.350Z,79.8115
2023-05-10T10:03:53.226Z,80.4881
2023-05-10T10:04:54.014Z,80.1601
2023-05-10T10:05:54.291Z,79.8725
2023-05-10T10:06:55.036Z,77.8504
2023-05-10T10:07:55.524Z,78.0937
2023-05-10T10:08:58.462Z,79.8983
2023-05-10T10:09:59.674Z,80.6388
2023-05-10T10:11:00.169Z,80.9109
2023-05-10T10:12:00.715Z,80.3545
2023-05-10T10:13:01.218Z,78.6460
2023-05-10T10:14:01.683Z,78.9762
2023-05-10T10:15:02.224Z,77.6405
2023-05-10T10:16:02.358Z,79.5910
2023-05-10T10:17:09.100Z,78.2476
2023-05-10T10:18:09.215Z,78.8153
2023-05-10T10:19:09.098Z,77.9623
2023-05-10T10:20:11.987Z,77.2188
2023-05-10T10:21:09.615Z,78.4429
2023-05-10T10:22:10.251Z,77.8065
2023-05-10T10:23:10.867Z,77.4534
2023-05-10T10:24:11.213Z,77.2860
2023-05-10T10:25:11.738Z,75.8965
2023-05-10T10:26:12.886Z,77.1409
2023-05-10T10:27:13.415Z,78.0487
2023-05-10T10:28:13.844Z,75.6455
2023-05-10T10:29:14.443Z,76.5171
2023-05-10T10:30:15.065Z,75.6359
2023-05-10T10:31:15.618Z,75.9520
2023-05-10T10:32:16.382Z,75.5426
2023-05-10T10:33:27.708Z,75.8493
2023-05-10T10:34:18.724Z,77.5072
2023-05-10T10:35:19.165Z,74.6852
2023-05-10T10:36:19.771Z,75.2880
2023-05-10T10:37:20.440Z,75.5344
2023-05-10T10:38:20.849Z,74.3381
2023-05-10T10:39:21.399Z,72.9435
2023-05-10T10:40:21.953Z,73.0469
2023-05-10T10:41:22.582Z,74.0364
2023-05-10T10:42:22.940Z,73.9743
2023-05-10T10:43:23.532Z,72.8548
2023-05-10T10:44:24.124Z,72.9488
2023-05-10T10:45:24.722Z,73.8008
2023-05-10T10:46:26.139Z,71.9550
2023-05-10T10:47:27.366Z,71.8578
2023-05-10T10:48:27.419Z,71.8578
2023-05-10T10:49:28.454Z,71.8578
2023-05-10T10:50:29.266Z,71.8578
2023-05-10T10:51:30.376Z,71.8578
2023-05-10T10:52:31.598Z,71.8578
2023-05-10T10:53:32.013Z,71.8578
2023-05-10T10:54:32.162Z,71.8578
2023-05-10T10:55:32.754Z,71.8578
2023-05-10T10:56:35.210Z,71.8578
2023-05-10T10:57:34.445Z,71.8578
2023-05-10T10:58:35.450Z,71.8578
2023-05-10T10:59:36.559Z,71.8578
2023-05-10T11:00:37.852Z,71.8578
2023-05-10T11:01:38.784Z,71.8578
2023-05-10T11:02:39.135Z,71.8578
2023-05-10T11:03:39.430Z,71.8578
2023-05-10T11:04:40.509Z,71.8578
2023-05-10T11:05:40.529Z,71.8578
2023-05-10T11:06:41.715Z,71.8578
2023-05-10T11:07:42.799Z,71.8578
2023-05-10T11:08:43.795Z,71.8578
2023-05-10T11:09:44.887Z,71.8578
2023-05-10T11:10:46.104Z,71.8578
2023-05-10T11:11:47.063Z,71.8578
2023-05-10T11:12:48.192Z,71.8578
2023-05-10T11:13:50.842Z,71.8578
2023-05-10T11:14:50.193Z,71.8578
2023-05-10T11:15:51.258Z,71.8578
2023-05-10T11:16:51.369Z,71.8578
2023-05-10T11:17:52.596Z,71.8578
2023-05-10T11:18:52.650Z,71.8578
2023-05-10T11:19:52.962Z,71.8578
2023-05-10T11:20:53.249Z,71.8578
2023-05-10T11:21:54.594Z,71.8578
2023-05-10T11:22:55.533Z,71.8578
2023-05-10T11:23:56.646Z,71.8578
2023-05-10T11:24:57.178Z,71.8578
2023-05-10T11:25:58.375Z,71.8578
2023-05-10T11:26:59.435Z,71.8578
2023-05-10T11:28:00.637Z,71.8578
2023-05-10T11:29:01.627Z,71.8578
2023-05-10T11:30:05.100Z,71.8578
2023-05-10T11:31:05.313Z,71.8578
2023-05-10T11:32:05.474Z,71.8578
2023-05-10T11:33:06.621Z,71.8578
2023-05-10T11:34:06.693Z,71.8578
2023-05-10T11:35:07.771Z,71.8578
2023-05-10T11:36:08.819Z,71.8578
2023-05-10T11:37:10.164Z,71.8578
2023-05-10T11:38:11.112Z,71.8578
2023-05-10T11:39:12.289Z,71.8578
2023-05-10T11:40:13.548Z,71.8578
2023-05-10T11:41:13.517Z,71.8578
2023-05-10T11:42:14.297Z,71.8578
2023-05-10T11:43:14.314Z,71.8578
2023-05-10T11:44:15.320Z,71.8578
2023-05-10T11:45:16.378Z,71.8578
2023-05-10T11:46:16.411Z,71.8578
2023-05-10T11:47:16.981Z,71.8578
2023-05-10T11:48:18.035Z,71.8578
2023-05-10T11:49:19.124Z,71.8578
2023-05-10T11:50:20.391Z,71.8578
2023-05-10T11:51:21.488Z,71.8578
2023-05-10T11:52:21.716Z,71.8578
2023-05-10T11:53:24.811Z,71.8578
2023-05-10T11:54:22.977Z,71.8578
2023-05-10T11:55:23.975Z,71.8578
2023-05-10T11:56:25.202Z,71.8578
2023-05-10T11:57:25.258Z,71.8578
2023-05-10T11:58:26.445Z,71.8578
2023-05-10T11:59:27.399Z,71.8578
2023-05-10T12:00:27.800Z,71.8578
2023-05-10T12:01:28.761Z,71.8578
2023-05-10T12:02:28.861Z,71.8578
2023-05-10T12:03:30.167Z,71.8578
2023-05-10T12:04:31.017Z,71.8578
2023-05-10T12:05:31.828Z,71.8578
2023-05-10T12:06:31.786Z,71.8578
2023-05-10T12:07:32.945Z,71.8578
2023-05-10T12:08:33.026Z,71.8578
2023-05-10T12:09:43.088Z,71.8578
2023-05-10T12:10:34.306Z,71.8578
2023-05-10T12:11:35.446Z,71.8578
2023-05-10T12:12:36.670Z,71.8578
2023-05-10T12:13:37.897Z,71.8578
2023-05-10T12:14:39.074Z,71.8578
2023-05-10T12:15:40.250Z,71.8578
2023-05-10T12:16:41.851Z,71.8578
2023-05-10T12:17:43.514Z,71.8578
2023-05-10T12:18:43.921Z,71.8578
2023-05-10T12:19:44.608Z,71.8578
2023-05-10T12:20:45.088Z,71.8578
2023-05-10T12:21:46.294Z,71.8578
2023-05-10T12:22:47.470Z,71.8578
2023-05-10T12:23:48.429Z,71.8578
2023-05-10T12:24:49.581Z,71.8578
2023-05-10T12:25:49.618Z,71.8578
2023-05-10T12:26:50.902Z,71.8578
2023-05-10T12:27:52.042Z,71.8578
2023-05-10T12:28:52.038Z,71.8578
2023-05-10T12:29:52.056Z,71.8578
2023-05-10T12:30:53.225Z,71.8578
2023-05-10T12:31:53.403Z,71.8578
2023-05-10T12:32:53.777Z,71.8578
2023-05-10T12:33:55.113Z,71.8578
2023-05-10T12:34:56.031Z,71.8578
2023-05-10T12:35:57.295Z,71.8578
2023-05-10T12:36:58.441Z,71.8578
2023-05-10T12:37:58.461Z,71.8578
2023-05-10T12:38:59.518Z,71.8578
2023-05-10T12:40:00.834Z,71.8578
2023-05-10T12:41:01.026Z,71.8578
2023-05-10T12:42:01.969Z,71.8578
2023-05-10T12:43:02.188Z,71.8578
2023-05-10T12:44:02.412Z,71.8578
2023-05-10T12:45:03.584Z,71.8578
2023-05-10T12:46:04.948Z,71.8578
2023-05-10T12:47:05.035Z,71.8578
2023-05-10T12:48:06.060Z,71.8578
2023-05-10T12:49:11.718Z,71.8578
2023-05-10T12:50:11.879Z,71.8578
2023-05-10T12:51:12.955Z,71.8578
2023-05-10T12:52:14.121Z,71.8578
2023-05-10T12:53:15.290Z,71.8578
2023-05-10T12:54:15.379Z,71.8578
2023-05-10T12:55:16.485Z,71.8578
2023-05-10T12:56:17.702Z,71.8578
2023-05-10T12:57:18.890Z,71.8578
2023-05-10T12:58:35.068Z,71.8578
2023-05-10T12:59:23.778Z,71.8578
2023-05-10T13:00:23.653Z,71.8578
2023-05-10T13:01:23.943Z,71.8578
2023-05-10T13:02:24.050Z,71.8578
2023-05-10T13:03:24.213Z,71.8578
2023-05-10T13:04:25.298Z,71.8578